Kentfield, California
Current Conditions -  °F | °C
As of 9:15 AM on Sunday 23 Nov 2014 (Local Time) from KDVO Reporting Station
Clear Clear  
Wind Chill: 55°   Ceiling: Unl
Heat Index: 55°   Visibility: NA
Dew Point: 45°   Wind: 12mph
Humidity: 67%   Direction: 340°NNW
Pressure: 30.34"   Gusts: NA
Location:  37.95°N, 122.54°W
Report Text: KDVO 231715Z AUTO 34010KT CLR 13/07 A3034 RMK AO2
Loading
Personal Weather Stations






























Interactive Weather Map New forecast layout! Learn more

10-Day Weather Forecast

Advertisements
Track Severe Weather on mobile